sensor_id;sensor_type;location;lat;lon;timestamp;P1;durP1;ratioP1;P2;durP2;ratioP2
16516;SDS011;8371;52.272;9.746;2023-05-10T00:00:00;2.10;;;1.30;;
16516;SDS011;8371;52.272;9.746;2023-05-10T00:02:25;1.10;;;1.10;;
16516;SDS011;8371;52.272;9.746;2023-05-10T00:04:51;1.03;;;1.03;;
16516;SDS011;8371;52.272;9.746;2023-05-10T00:07:17;1.23;;;1.23;;
16516;SDS011;8371;52.272;9.746;2023-05-10T00:09:43;1.10;;;1.10;;
16516;SDS011;8371;52.272;9.746;2023-05-10T00:12:09;1.20;;;1.20;;
16516;SDS011;8371;52.272;9.746;2023-05-10T00:14:35;1.10;;;1.10;;
16516;SDS011;8371;52.272;9.746;2023-05-10T00:17:01;1.40;;;1.23;;
16516;SDS011;8371;52.272;9.746;2023-05-10T00:19:26;1.53;;;1.37;;
16516;SDS011;8371;52.272;9.746;2023-05-10T00:21:52;1.10;;;1.10;;
16516;SDS011;8371;52.272;9.746;2023-05-10T00:24:18;1.33;;;1.33;;
16516;SDS011;8371;52.272;9.746;2023-05-10T00:26:43;1.03;;;1.03;;
16516;SDS011;8371;52.272;9.746;2023-05-10T00:29:10;2.00;;;1.03;;
16516;SDS011;8371;52.272;9.746;2023-05-10T00:31:35;1.40;;;1.40;;
16516;SDS011;8371;52.272;9.746;2023-05-10T00:34:01;1.10;;;1.10;;
16516;SDS011;8371;52.272;9.746;2023-05-10T00:36:27;1.10;;;1.10;;
16516;SDS011;8371;52.272;9.746;2023-05-10T00:38:53;1.30;;;1.30;;
16516;SDS011;8371;52.272;9.746;2023-05-10T00:41:19;1.27;;;1.27;;
16516;SDS011;8371;52.272;9.746;2023-05-10T00:43:46;0.80;;;0.80;;
16516;SDS011;8371;52.272;9.746;2023-05-10T00:46:11;1.13;;;1.13;;
16516;SDS011;8371;52.272;9.746;2023-05-10T00:48:39;1.83;;;1.50;;
16516;SDS011;8371;52.272;9.746;2023-05-10T00:51:04;1.23;;;1.17;;
16516;SDS011;8371;52.272;9.746;2023-05-10T00:53:31;1.07;;;1.07;;
16516;SDS011;8371;52.272;9.746;2023-05-10T00:55:58;1.07;;;1.07;;
16516;SDS011;8371;52.272;9.746;2023-05-10T00:58:24;1.20;;;1.10;;
16516;SDS011;8371;52.272;9.746;2023-05-10T01:00:52;1.17;;;1.10;;
16516;SDS011;8371;52.272;9.746;2023-05-10T01:03:20;1.10;;;1.10;;
16516;SDS011;8371;52.272;9.746;2023-05-10T01:05:46;1.10;;;1.10;;
16516;SDS011;8371;52.272;9.746;2023-05-10T01:08:11;1.27;;;1.27;;
16516;SDS011;8371;52.272;9.746;2023-05-10T01:10:37;1.20;;;1.20;;
16516;SDS011;8371;52.272;9.746;2023-05-10T01:13:03;1.67;;;1.43;;
16516;SDS011;8371;52.272;9.746;2023-05-10T01:15:28;1.20;;;1.20;;
16516;SDS011;8371;52.272;9.746;2023-05-10T01:17:56;1.60;;;1.50;;
16516;SDS011;8371;52.272;9.746;2023-05-10T01:20:21;1.30;;;1.30;;
16516;SDS011;8371;52.272;9.746;2023-05-10T01:23:10;1.57;;;1.57;;
16516;SDS011;8371;52.272;9.746;2023-05-10T01:26:07;1.33;;;1.33;;
16516;SDS011;8371;52.272;9.746;2023-05-10T01:28:39;1.67;;;1.57;;
16516;SDS011;8371;52.272;9.746;2023-05-10T01:31:18;1.37;;;1.07;;
16516;SDS011;8371;52.272;9.746;2023-05-10T01:33:47;3.73;;;1.33;;
16516;SDS011;8371;52.272;9.746;2023-05-10T01:36:18;1.10;;;1.10;;
16516;SDS011;8371;52.272;9.746;2023-05-10T01:41:32;1.03;;;1.03;;
16516;SDS011;8371;52.272;9.746;2023-05-10T01:47:01;1.37;;;1.37;;
16516;SDS011;8371;52.272;9.746;2023-05-10T01:49:25;1.47;;;1.40;;
16516;SDS011;8371;52.272;9.746;2023-05-10T01:51:54;1.33;;;1.33;;
16516;SDS011;8371;52.272;9.746;2023-05-10T01:54:23;1.30;;;1.30;;
16516;SDS011;8371;52.272;9.746;2023-05-10T01:56:50;3.37;;;1.30;;
16516;SDS011;8371;52.272;9.746;2023-05-10T01:59:19;1.50;;;1.50;;
16516;SDS011;8371;52.272;9.746;2023-05-10T02:01:46;1.50;;;1.40;;
16516;SDS011;8371;52.272;9.746;2023-05-10T02:04:15;3.20;;;1.40;;
16516;SDS011;8371;52.272;9.746;2023-05-10T02:06:42;1.63;;;1.63;;
16516;SDS011;8371;52.272;9.746;2023-05-10T02:09:10;1.20;;;1.20;;
16516;SDS011;8371;52.272;9.746;2023-05-10T02:11:38;1.50;;;1.40;;
16516;SDS011;8371;52.272;9.746;2023-05-10T02:14:06;1.33;;;1.33;;
16516;SDS011;8371;52.272;9.746;2023-05-10T02:16:34;1.70;;;1.37;;
16516;SDS011;8371;52.272;9.746;2023-05-10T02:19:01;1.20;;;1.20;;
16516;SDS011;8371;52.272;9.746;2023-05-10T02:21:28;1.50;;;1.50;;
16516;SDS011;8371;52.272;9.746;2023-05-10T02:23:56;1.33;;;1.33;;
16516;SDS011;8371;52.272;9.746;2023-05-10T02:26:23;1.30;;;1.30;;
16516;SDS011;8371;52.272;9.746;2023-05-10T02:28:50;1.53;;;1.50;;
16516;SDS011;8371;52.272;9.746;2023-05-10T02:31:18;1.70;;;1.70;;
16516;SDS011;8371;52.272;9.746;2023-05-10T02:33:45;1.83;;;1.73;;
16516;SDS011;8371;52.272;9.746;2023-05-10T02:36:13;2.10;;;1.90;;
16516;SDS011;8371;52.272;9.746;2023-05-10T02:38:40;1.93;;;1.83;;
16516;SDS011;8371;52.272;9.746;2023-05-10T02:41:07;1.27;;;1.27;;
16516;SDS011;8371;52.272;9.746;2023-05-10T02:43:33;1.87;;;1.80;;
16516;SDS011;8371;52.272;9.746;2023-05-10T02:46:00;1.80;;;1.80;;
16516;SDS011;8371;52.272;9.746;2023-05-10T02:48:27;1.50;;;1.50;;
16516;SDS011;8371;52.272;9.746;2023-05-10T02:50:53;1.50;;;1.40;;
16516;SDS011;8371;52.272;9.746;2023-05-10T02:53:22;1.43;;;1.43;;
16516;SDS011;8371;52.272;9.746;2023-05-10T02:55:51;1.70;;;1.60;;
16516;SDS011;8371;52.272;9.746;2023-05-10T02:58:20;1.27;;;1.20;;
16516;SDS011;8371;52.272;9.746;2023-05-10T03:00:46;1.50;;;1.50;;
16516;SDS011;8371;52.272;9.746;2023-05-10T03:03:12;1.53;;;1.53;;
16516;SDS011;8371;52.272;9.746;2023-05-10T03:05:38;1.70;;;1.70;;
16516;SDS011;8371;52.272;9.746;2023-05-10T03:08:03;1.57;;;1.43;;
16516;SDS011;8371;52.272;9.746;2023-05-10T03:10:30;1.47;;;1.47;;
16516;SDS011;8371;52.272;9.746;2023-05-10T03:13:12;1.43;;;1.43;;
16516;SDS011;8371;52.272;9.746;2023-05-10T03:18:21;1.67;;;1.67;;
16516;SDS011;8371;52.272;9.746;2023-05-10T03:20:49;1.70;;;1.70;;
16516;SDS011;8371;52.272;9.746;2023-05-10T03:25:49;1.83;;;1.83;;
16516;SDS011;8371;52.272;9.746;2023-05-10T03:28:16;1.67;;;1.67;;
16516;SDS011;8371;52.272;9.746;2023-05-10T03:30:43;1.40;;;1.40;;
16516;SDS011;8371;52.272;9.746;2023-05-10T03:33:10;1.40;;;1.40;;
16516;SDS011;8371;52.272;9.746;2023-05-10T03:35:36;1.63;;;1.63;;
16516;SDS011;8371;52.272;9.746;2023-05-10T03:38:02;1.67;;;1.67;;
16516;SDS011;8371;52.272;9.746;2023-05-10T03:40:27;1.80;;;1.70;;
16516;SDS011;8371;52.272;9.746;2023-05-10T03:43:01;1.60;;;1.60;;
16516;SDS011;8371;52.272;9.746;2023-05-10T03:45:25;1.40;;;1.40;;
16516;SDS011;8371;52.272;9.746;2023-05-10T03:47:50;1.77;;;1.73;;
16516;SDS011;8371;52.272;9.746;2023-05-10T03:50:16;1.70;;;1.70;;
16516;SDS011;8371;52.272;9.746;2023-05-10T03:52:42;1.60;;;1.60;;
16516;SDS011;8371;52.272;9.746;2023-05-10T03:55:08;2.03;;;1.93;;
16516;SDS011;8371;52.272;9.746;2023-05-10T03:57:34;1.90;;;1.80;;
16516;SDS011;8371;52.272;9.746;2023-05-10T04:00:00;1.90;;;1.80;;
16516;SDS011;8371;52.272;9.746;2023-05-10T04:02:26;1.60;;;1.60;;
16516;SDS011;8371;52.272;9.746;2023-05-10T04:04:52;1.93;;;1.93;;
16516;SDS011;8371;52.272;9.746;2023-05-10T04:07:18;1.60;;;1.60;;
16516;SDS011;8371;52.272;9.746;2023-05-10T04:09:43;1.73;;;1.63;;
16516;SDS011;8371;52.272;9.746;2023-05-10T04:12:09;2.80;;;1.87;;
16516;SDS011;8371;52.272;9.746;2023-05-10T04:14:35;1.80;;;1.80;;
16516;SDS011;8371;52.272;9.746;2023-05-10T04:17:00;1.83;;;1.83;;
16516;SDS011;8371;52.272;9.746;2023-05-10T04:19:29;2.13;;;2.03;;
16516;SDS011;8371;52.272;9.746;2023-05-10T04:21:56;1.93;;;1.83;;
16516;SDS011;8371;52.272;9.746;2023-05-10T04:24:21;2.27;;;2.20;;
16516;SDS011;8371;52.272;9.746;2023-05-10T04:26:47;2.00;;;1.93;;
16516;SDS011;8371;52.272;9.746;2023-05-10T04:29:12;2.23;;;2.13;;
16516;SDS011;8371;52.272;9.746;2023-05-10T04:31:38;1.73;;;1.73;;
16516;SDS011;8371;52.272;9.746;2023-05-10T04:34:04;2.30;;;2.20;;
16516;SDS011;8371;52.272;9.746;2023-05-10T04:36:30;2.40;;;2.20;;
16516;SDS011;8371;52.272;9.746;2023-05-10T04:38:57;1.87;;;1.77;;
16516;SDS011;8371;52.272;9.746;2023-05-10T04:41:23;5.73;;;1.80;;
16516;SDS011;8371;52.272;9.746;2023-05-10T04:43:50;2.30;;;2.20;;
16516;SDS011;8371;52.272;9.746;2023-05-10T04:46:16;2.17;;;2.07;;
16516;SDS011;8371;52.272;9.746;2023-05-10T04:48:41;2.10;;;2.10;;
16516;SDS011;8371;52.272;9.746;2023-05-10T04:51:07;2.07;;;1.93;;
16516;SDS011;8371;52.272;9.746;2023-05-10T04:53:33;1.87;;;1.83;;
16516;SDS011;8371;52.272;9.746;2023-05-10T04:55:59;2.00;;;1.90;;
16516;SDS011;8371;52.272;9.746;2023-05-10T04:58:24;2.67;;;2.47;;
16516;SDS011;8371;52.272;9.746;2023-05-10T05:00:50;1.77;;;1.77;;
16516;SDS011;8371;52.272;9.746;2023-05-10T05:03:16;3.13;;;1.90;;
16516;SDS011;8371;52.272;9.746;2023-05-10T05:05:41;1.80;;;1.80;;
16516;SDS011;8371;52.272;9.746;2023-05-10T05:08:07;2.00;;;1.90;;
16516;SDS011;8371;52.272;9.746;2023-05-10T05:10:33;2.17;;;2.07;;
16516;SDS011;8371;52.272;9.746;2023-05-10T05:12:58;2.10;;;2.00;;
16516;SDS011;8371;52.272;9.746;2023-05-10T05:15:24;2.83;;;1.77;;
16516;SDS011;8371;52.272;9.746;2023-05-10T05:17:50;1.63;;;1.63;;
16516;SDS011;8371;52.272;9.746;2023-05-10T05:20:15;1.93;;;1.90;;
16516;SDS011;8371;52.272;9.746;2023-05-10T05:22:41;2.13;;;2.03;;
16516;SDS011;8371;52.272;9.746;2023-05-10T05:25:07;1.70;;;1.70;;
16516;SDS011;8371;52.272;9.746;2023-05-10T05:27:33;2.00;;;2.00;;
16516;SDS011;8371;52.272;9.746;2023-05-10T05:29:59;2.07;;;2.00;;
16516;SDS011;8371;52.272;9.746;2023-05-10T05:32:24;2.00;;;1.90;;
16516;SDS011;8371;52.272;9.746;2023-05-10T05:34:50;2.40;;;1.83;;
16516;SDS011;8371;52.272;9.746;2023-05-10T05:37:17;1.90;;;1.90;;
16516;SDS011;8371;52.272;9.746;2023-05-10T05:39:44;2.07;;;2.00;;
16516;SDS011;8371;52.272;9.746;2023-05-10T05:42:11;1.80;;;1.80;;
16516;SDS011;8371;52.272;9.746;2023-05-10T05:44:38;1.70;;;1.70;;
16516;SDS011;8371;52.272;9.746;2023-05-10T05:47:04;1.80;;;1.80;;
16516;SDS011;8371;52.272;9.746;2023-05-10T05:49:30;1.43;;;1.43;;
16516;SDS011;8371;52.272;9.746;2023-05-10T05:51:59;1.77;;;1.70;;
16516;SDS011;8371;52.272;9.746;2023-05-10T05:54:27;1.93;;;1.83;;
16516;SDS011;8371;52.272;9.746;2023-05-10T05:56:58;1.77;;;1.67;;
16516;SDS011;8371;52.272;9.746;2023-05-10T05:59:22;2.83;;;1.70;;
16516;SDS011;8371;52.272;9.746;2023-05-10T06:01:48;1.70;;;1.70;;
16516;SDS011;8371;52.272;9.746;2023-05-10T06:04:14;1.70;;;1.70;;
16516;SDS011;8371;52.272;9.746;2023-05-10T06:06:40;1.70;;;1.70;;
16516;SDS011;8371;52.272;9.746;2023-05-10T06:09:05;2.00;;;2.00;;
16516;SDS011;8371;52.272;9.746;2023-05-10T06:11:31;1.80;;;1.77;;
16516;SDS011;8371;52.272;9.746;2023-05-10T06:13:57;1.40;;;1.40;;
16516;SDS011;8371;52.272;9.746;2023-05-10T06:16:24;1.63;;;1.60;;
16516;SDS011;8371;52.272;9.746;2023-05-10T06:18:50;1.63;;;1.57;;
16516;SDS011;8371;52.272;9.746;2023-05-10T06:21:16;1.87;;;1.80;;
16516;SDS011;8371;52.272;9.746;2023-05-10T06:23:42;2.03;;;1.93;;
16516;SDS011;8371;52.272;9.746;2023-05-10T06:26:07;1.57;;;1.50;;
16516;SDS011;8371;52.272;9.746;2023-05-10T06:28:33;1.70;;;1.60;;
16516;SDS011;8371;52.272;9.746;2023-05-10T06:30:59;1.60;;;1.60;;
16516;SDS011;8371;52.272;9.746;2023-05-10T06:33:25;1.60;;;1.60;;
16516;SDS011;8371;52.272;9.746;2023-05-10T06:35:51;1.43;;;1.43;;
16516;SDS011;8371;52.272;9.746;2023-05-10T06:38:17;1.73;;;1.63;;
16516;SDS011;8371;52.272;9.746;2023-05-10T06:40:42;1.67;;;1.67;;
16516;SDS011;8371;52.272;9.746;2023-05-10T06:43:08;1.90;;;1.90;;
16516;SDS011;8371;52.272;9.746;2023-05-10T06:45:35;1.80;;;1.80;;
16516;SDS011;8371;52.272;9.746;2023-05-10T06:48:01;1.70;;;1.70;;
16516;SDS011;8371;52.272;9.746;2023-05-10T06:50:27;1.70;;;1.63;;
16516;SDS011;8371;52.272;9.746;2023-05-10T06:52:53;1.60;;;1.60;;
16516;SDS011;8371;52.272;9.746;2023-05-10T06:55:19;1.60;;;1.53;;
16516;SDS011;8371;52.272;9.746;2023-05-10T06:57:45;1.77;;;1.77;;
16516;SDS011;8371;52.272;9.746;2023-05-10T07:00:10;1.77;;;1.77;;
16516;SDS011;8371;52.272;9.746;2023-05-10T07:02:36;1.97;;;1.87;;
16516;SDS011;8371;52.272;9.746;2023-05-10T07:05:02;2.17;;;2.07;;
16516;SDS011;8371;52.272;9.746;2023-05-10T07:07:28;1.80;;;1.80;;
16516;SDS011;8371;52.272;9.746;2023-05-10T07:09:54;2.20;;;2.10;;
16516;SDS011;8371;52.272;9.746;2023-05-10T07:12:21;1.90;;;1.80;;
16516;SDS011;8371;52.272;9.746;2023-05-10T07:14:47;1.70;;;1.60;;
16516;SDS011;8371;52.272;9.746;2023-05-10T07:17:13;1.90;;;1.87;;
16516;SDS011;8371;52.272;9.746;2023-05-10T07:19:38;2.07;;;2.07;;
16516;SDS011;8371;52.272;9.746;2023-05-10T07:22:04;1.37;;;1.37;;
16516;SDS011;8371;52.272;9.746;2023-05-10T07:24:30;1.80;;;1.67;;
16516;SDS011;8371;52.272;9.746;2023-05-10T07:26:56;2.00;;;2.00;;
16516;SDS011;8371;52.272;9.746;2023-05-10T07:29:22;2.10;;;2.00;;
16516;SDS011;8371;52.272;9.746;2023-05-10T07:31:48;1.80;;;1.80;;
16516;SDS011;8371;52.272;9.746;2023-05-10T07:34:13;2.57;;;2.47;;
16516;SDS011;8371;52.272;9.746;2023-05-10T07:36:39;1.80;;;1.80;;
16516;SDS011;8371;52.272;9.746;2023-05-10T07:39:05;2.20;;;2.10;;
16516;SDS011;8371;52.272;9.746;2023-05-10T07:41:30;1.70;;;1.70;;
16516;SDS011;8371;52.272;9.746;2023-05-10T07:43:56;1.80;;;1.80;;
16516;SDS011;8371;52.272;9.746;2023-05-10T07:46:22;1.90;;;1.77;;
16516;SDS011;8371;52.272;9.746;2023-05-10T07:48:47;2.20;;;2.20;;
16516;SDS011;8371;52.272;9.746;2023-05-10T07:51:13;1.40;;;1.40;;
16516;SDS011;8371;52.272;9.746;2023-05-10T07:53:39;1.90;;;1.80;;
16516;SDS011;8371;52.272;9.746;2023-05-10T07:58:51;1.60;;;1.60;;
16516;SDS011;8371;52.272;9.746;2023-05-10T08:01:17;2.20;;;1.67;;
16516;SDS011;8371;52.272;9.746;2023-05-10T08:03:43;1.33;;;1.33;;
16516;SDS011;8371;52.272;9.746;2023-05-10T08:06:08;1.27;;;1.27;;
16516;SDS011;8371;52.272;9.746;2023-05-10T08:08:34;0.80;;;0.80;;
16516;SDS011;8371;52.272;9.746;2023-05-10T08:11:00;0.53;;;0.53;;
16516;SDS011;8371;52.272;9.746;2023-05-10T08:13:26;0.40;;;0.40;;
16516;SDS011;8371;52.272;9.746;2023-05-10T08:15:51;0.40;;;0.40;;
16516;SDS011;8371;52.272;9.746;2023-05-10T08:18:19;0.20;;;0.20;;
16516;SDS011;8371;52.272;9.746;2023-05-10T08:20:45;0.30;;;0.30;;
16516;SDS011;8371;52.272;9.746;2023-05-10T08:23:18;0.40;;;0.40;;
16516;SDS011;8371;52.272;9.746;2023-05-10T08:25:44;0.10;;;0.10;;
16516;SDS011;8371;52.272;9.746;2023-05-10T08:28:10;0.20;;;0.20;;
16516;SDS011;8371;52.272;9.746;2023-05-10T08:30:35;3.33;;;0.17;;
16516;SDS011;8371;52.272;9.746;2023-05-10T08:33:01;0.17;;;0.10;;
16516;SDS011;8371;52.272;9.746;2023-05-10T08:35:27;0.10;;;0.10;;
16516;SDS011;8371;52.272;9.746;2023-05-10T08:37:52;0.10;;;0.10;;
16516;SDS011;8371;52.272;9.746;2023-05-10T08:40:19;0.07;;;0.07;;
16516;SDS011;8371;52.272;9.746;2023-05-10T08:42:51;0.10;;;0.10;;
16516;SDS011;8371;52.272;9.746;2023-05-10T08:45:15;0.10;;;0.10;;
16516;SDS011;8371;52.272;9.746;2023-05-10T08:47:42;0.10;;;0.10;;
16516;SDS011;8371;52.272;9.746;2023-05-10T08:50:07;0.00;;;0.00;;
16516;SDS011;8371;52.272;9.746;2023-05-10T08:52:35;0.00;;;0.00;;
16516;SDS011;8371;52.272;9.746;2023-05-10T08:55:05;0.10;;;0.10;;
16516;SDS011;8371;52.272;9.746;2023-05-10T08:57:31;0.20;;;0.17;;
16516;SDS011;8371;52.272;9.746;2023-05-10T08:59:57;0.00;;;0.00;;
16516;SDS011;8371;52.272;9.746;2023-05-10T09:02:24;0.10;;;0.10;;
16516;SDS011;8371;52.272;9.746;2023-05-10T09:04:51;0.10;;;0.10;;
16516;SDS011;8371;52.272;9.746;2023-05-10T09:07:16;0.10;;;0.10;;
16516;SDS011;8371;52.272;9.746;2023-05-10T09:09:42;0.30;;;0.13;;
16516;SDS011;8371;52.272;9.746;2023-05-10T09:12:09;0.17;;;0.13;;
16516;SDS011;8371;52.272;9.746;2023-05-10T09:14:36;0.10;;;0.10;;
16516;SDS011;8371;52.272;9.746;2023-05-10T09:17:03;0.03;;;0.03;;
16516;SDS011;8371;52.272;9.746;2023-05-10T09:19:29;0.20;;;0.20;;
16516;SDS011;8371;52.272;9.746;2023-05-10T09:21:55;0.10;;;0.10;;
16516;SDS011;8371;52.272;9.746;2023-05-10T09:24:24;0.27;;;0.10;;
16516;SDS011;8371;52.272;9.746;2023-05-10T09:26:52;0.13;;;0.13;;
16516;SDS011;8371;52.272;9.746;2023-05-10T09:29:18;0.20;;;0.20;;
16516;SDS011;8371;52.272;9.746;2023-05-10T09:31:48;0.20;;;0.20;;
16516;SDS011;8371;52.272;9.746;2023-05-10T09:34:17;0.10;;;0.10;;
16516;SDS011;8371;52.272;9.746;2023-05-10T09:36:52;0.10;;;0.10;;
16516;SDS011;8371;52.272;9.746;2023-05-10T09:39:19;0.13;;;0.13;;
16516;SDS011;8371;52.272;9.746;2023-05-10T09:41:46;0.30;;;0.30;;
16516;SDS011;8371;52.272;9.746;2023-05-10T09:44:14;0.20;;;0.20;;
16516;SDS011;8371;52.272;9.746;2023-05-10T09:46:43;0.20;;;0.20;;
16516;SDS011;8371;52.272;9.746;2023-05-10T09:49:08;0.13;;;0.13;;
16516;SDS011;8371;52.272;9.746;2023-05-10T09:51:36;0.30;;;0.30;;
16516;SDS011;8371;52.272;9.746;2023-05-10T09:54:09;0.30;;;0.30;;
16516;SDS011;8371;52.272;9.746;2023-05-10T09:56:36;0.47;;;0.30;;
16516;SDS011;8371;52.272;9.746;2023-05-10T09:59:04;0.30;;;0.30;;
16516;SDS011;8371;52.272;9.746;2023-05-10T10:01:31;0.53;;;0.53;;
16516;SDS011;8371;52.272;9.746;2023-05-10T10:03:57;0.30;;;0.30;;
16516;SDS011;8371;52.272;9.746;2023-05-10T10:06:23;0.20;;;0.20;;
16516;SDS011;8371;52.272;9.746;2023-05-10T10:08:50;0.10;;;0.10;;
16516;SDS011;8371;52.272;9.746;2023-05-10T10:11:16;0.40;;;0.40;;
16516;SDS011;8371;52.272;9.746;2023-05-10T10:13:42;0.20;;;0.20;;
16516;SDS011;8371;52.272;9.746;2023-05-10T10:16:08;0.30;;;0.30;;
16516;SDS011;8371;52.272;9.746;2023-05-10T10:18:35;0.23;;;0.23;;
16516;SDS011;8371;52.272;9.746;2023-05-10T10:21:06;0.40;;;0.40;;
16516;SDS011;8371;52.272;9.746;2023-05-10T10:23:34;0.40;;;0.40;;
16516;SDS011;8371;52.272;9.746;2023-05-10T10:26:01;1.13;;;0.20;;
16516;SDS011;8371;52.272;9.746;2023-05-10T10:31:17;0.37;;;0.30;;
16516;SDS011;8371;52.272;9.746;2023-05-10T10:33:51;0.20;;;0.20;;
16516;SDS011;8371;52.272;9.746;2023-05-10T10:36:19;0.47;;;0.47;;
16516;SDS011;8371;52.272;9.746;2023-05-10T10:47:05;0.50;;;0.50;;
16516;SDS011;8371;52.272;9.746;2023-05-10T10:52:26;0.77;;;0.77;;
16516;SDS011;8371;52.272;9.746;2023-05-10T10:55:02;0.70;;;0.70;;
16516;SDS011;8371;52.272;9.746;2023-05-10T11:03:05;0.90;;;0.90;;
16516;SDS011;8371;52.272;9.746;2023-05-10T11:13:31;0.60;;;0.60;;
16516;SDS011;8371;52.272;9.746;2023-05-10T11:16:09;0.80;;;0.80;;
16516;SDS011;8371;52.272;9.746;2023-05-10T11:18:40;0.90;;;0.90;;
16516;SDS011;8371;52.272;9.746;2023-05-10T11:21:09;0.90;;;0.90;;
16516;SDS011;8371;52.272;9.746;2023-05-10T11:26:10;1.00;;;1.00;;
16516;SDS011;8371;52.272;9.746;2023-05-10T11:28:47;0.90;;;0.90;;
16516;SDS011;8371;52.272;9.746;2023-05-10T11:31:14;0.80;;;0.80;;
16516;SDS011;8371;52.272;9.746;2023-05-10T11:33:42;1.27;;;1.07;;
16516;SDS011;8371;52.272;9.746;2023-05-10T11:36:23;0.90;;;0.90;;
16516;SDS011;8371;52.272;9.746;2023-05-10T11:38:51;0.90;;;0.90;;
16516;SDS011;8371;52.272;9.746;2023-05-10T11:41:18;0.90;;;0.90;;
16516;SDS011;8371;52.272;9.746;2023-05-10T11:43:46;1.10;;;1.10;;
16516;SDS011;8371;52.272;9.746;2023-05-10T11:46:14;1.10;;;1.10;;
16516;SDS011;8371;52.272;9.746;2023-05-10T11:48:40;1.10;;;1.10;;
16516;SDS011;8371;52.272;9.746;2023-05-10T11:51:07;0.97;;;0.97;;
16516;SDS011;8371;52.272;9.746;2023-05-10T11:53:34;1.00;;;1.00;;
16516;SDS011;8371;52.272;9.746;2023-05-10T11:56:09;1.07;;;1.07;;
16516;SDS011;8371;52.272;9.746;2023-05-10T11:58:37;1.30;;;1.17;;
16516;SDS011;8371;52.272;9.746;2023-05-10T12:01:04;0.90;;;0.90;;
16516;SDS011;8371;52.272;9.746;2023-05-10T12:03:31;1.13;;;1.13;;
16516;SDS011;8371;52.272;9.746;2023-05-10T12:05:58;1.03;;;1.03;;
16516;SDS011;8371;52.272;9.746;2023-05-10T12:08:25;1.00;;;1.00;;
16516;SDS011;8371;52.272;9.746;2023-05-10T12:10:52;0.87;;;0.87;;
16516;SDS011;8371;52.272;9.746;2023-05-10T12:13:20;1.37;;;1.10;;
16516;SDS011;8371;52.272;9.746;2023-05-10T12:15:46;1.20;;;1.20;;
16516;SDS011;8371;52.272;9.746;2023-05-10T12:18:12;1.13;;;1.13;;
16516;SDS011;8371;52.272;9.746;2023-05-10T12:20:39;1.00;;;1.00;;
16516;SDS011;8371;52.272;9.746;2023-05-10T12:23:07;1.20;;;1.20;;
16516;SDS011;8371;52.272;9.746;2023-05-10T12:25:35;1.23;;;0.90;;
16516;SDS011;8371;52.272;9.746;2023-05-10T12:28:03;1.03;;;1.03;;
16516;SDS011;8371;52.272;9.746;2023-05-10T12:30:31;0.90;;;0.90;;
16516;SDS011;8371;52.272;9.746;2023-05-10T12:35:47;1.30;;;1.30;;
16516;SDS011;8371;52.272;9.746;2023-05-10T12:38:26;1.13;;;1.13;;
16516;SDS011;8371;52.272;9.746;2023-05-10T12:40:59;0.90;;;0.90;;
16516;SDS011;8371;52.272;9.746;2023-05-10T12:43:26;1.13;;;1.13;;
16516;SDS011;8371;52.272;9.746;2023-05-10T12:45:52;1.00;;;1.00;;
16516;SDS011;8371;52.272;9.746;2023-05-10T12:48:18;1.00;;;1.00;;
16516;SDS011;8371;52.272;9.746;2023-05-10T12:50:44;1.30;;;1.17;;
16516;SDS011;8371;52.272;9.746;2023-05-10T12:53:09;1.27;;;1.17;;
16516;SDS011;8371;52.272;9.746;2023-05-10T12:55:35;0.87;;;0.87;;
16516;SDS011;8371;52.272;9.746;2023-05-10T12:58:01;1.10;;;1.10;;
16516;SDS011;8371;52.272;9.746;2023-05-10T13:00:26;0.83;;;0.83;;
16516;SDS011;8371;52.272;9.746;2023-05-10T13:02:52;0.83;;;0.83;;
16516;SDS011;8371;52.272;9.746;2023-05-10T13:05:18;1.13;;;1.13;;
16516;SDS011;8371;52.272;9.746;2023-05-10T13:07:44;0.80;;;0.80;;
16516;SDS011;8371;52.272;9.746;2023-05-10T13:10:10;1.37;;;1.37;;
16516;SDS011;8371;52.272;9.746;2023-05-10T13:12:36;1.93;;;1.30;;
16516;SDS011;8371;52.272;9.746;2023-05-10T13:15:02;1.43;;;1.33;;
16516;SDS011;8371;52.272;9.746;2023-05-10T13:17:28;1.00;;;1.00;;
16516;SDS011;8371;52.272;9.746;2023-05-10T13:19:54;1.20;;;1.20;;
16516;SDS011;8371;52.272;9.746;2023-05-10T13:22:20;1.07;;;1.07;;
16516;SDS011;8371;52.272;9.746;2023-05-10T13:24:46;1.23;;;1.23;;
16516;SDS011;8371;52.272;9.746;2023-05-10T13:27:11;1.50;;;1.40;;
16516;SDS011;8371;52.272;9.746;2023-05-10T13:29:37;1.00;;;1.00;;
16516;SDS011;8371;52.272;9.746;2023-05-10T13:32:03;1.10;;;1.10;;
16516;SDS011;8371;52.272;9.746;2023-05-10T13:34:29;1.10;;;1.10;;
16516;SDS011;8371;52.272;9.746;2023-05-10T13:36:54;0.80;;;0.80;;
16516;SDS011;8371;52.272;9.746;2023-05-10T13:39:21;1.00;;;1.00;;
16516;SDS011;8371;52.272;9.746;2023-05-10T13:41:47;1.27;;;1.27;;
16516;SDS011;8371;52.272;9.746;2023-05-10T13:44:13;1.00;;;1.00;;
16516;SDS011;8371;52.272;9.746;2023-05-10T13:46:40;1.30;;;1.30;;
16516;SDS011;8371;52.272;9.746;2023-05-10T13:49:08;1.40;;;1.30;;
16516;SDS011;8371;52.272;9.746;2023-05-10T13:51:35;1.53;;;1.47;;
16516;SDS011;8371;52.272;9.746;2023-05-10T13:54:01;1.00;;;1.00;;
16516;SDS011;8371;52.272;9.746;2023-05-10T13:56:27;1.13;;;1.13;;
16516;SDS011;8371;52.272;9.746;2023-05-10T13:58:53;1.37;;;1.37;;
16516;SDS011;8371;52.272;9.746;2023-05-10T14:01:19;1.10;;;1.10;;
16516;SDS011;8371;52.272;9.746;2023-05-10T14:03:44;1.60;;;1.60;;
16516;SDS011;8371;52.272;9.746;2023-05-10T14:06:10;1.30;;;1.30;;
16516;SDS011;8371;52.272;9.746;2023-05-10T14:08:36;1.37;;;1.37;;
16516;SDS011;8371;52.272;9.746;2023-05-10T14:11:02;1.50;;;1.50;;
16516;SDS011;8371;52.272;9.746;2023-05-10T14:13:27;3.33;;;1.30;;
16516;SDS011;8371;52.272;9.746;2023-05-10T14:15:54;1.50;;;1.50;;
16516;SDS011;8371;52.272;9.746;2023-05-10T14:18:20;1.20;;;1.20;;
16516;SDS011;8371;52.272;9.746;2023-05-10T14:20:46;1.37;;;1.37;;
16516;SDS011;8371;52.272;9.746;2023-05-10T14:23:12;1.53;;;1.53;;
16516;SDS011;8371;52.272;9.746;2023-05-10T14:25:39;1.17;;;1.17;;
16516;SDS011;8371;52.272;9.746;2023-05-10T14:28:05;1.17;;;1.17;;
16516;SDS011;8371;52.272;9.746;2023-05-10T14:30:31;1.30;;;1.30;;
16516;SDS011;8371;52.272;9.746;2023-05-10T14:32:57;1.40;;;1.40;;
16516;SDS011;8371;52.272;9.746;2023-05-10T14:35:24;1.47;;;1.37;;
16516;SDS011;8371;52.272;9.746;2023-05-10T14:37:49;1.40;;;1.40;;
16516;SDS011;8371;52.272;9.746;2023-05-10T14:40:15;1.60;;;1.60;;
16516;SDS011;8371;52.272;9.746;2023-05-10T14:42:42;1.30;;;1.30;;
16516;SDS011;8371;52.272;9.746;2023-05-10T14:45:08;1.63;;;1.53;;
16516;SDS011;8371;52.272;9.746;2023-05-10T14:47:35;1.60;;;1.60;;
16516;SDS011;8371;52.272;9.746;2023-05-10T14:50:00;1.43;;;1.40;;
16516;SDS011;8371;52.272;9.746;2023-05-10T14:52:27;1.67;;;1.63;;
16516;SDS011;8371;52.272;9.746;2023-05-10T14:54:53;1.47;;;1.47;;
16516;SDS011;8371;52.272;9.746;2023-05-10T14:57:18;1.03;;;1.03;;
16516;SDS011;8371;52.272;9.746;2023-05-10T14:59:44;1.13;;;1.13;;
16516;SDS011;8371;52.272;9.746;2023-05-10T15:02:10;1.33;;;1.33;;
16516;SDS011;8371;52.272;9.746;2023-05-10T15:04:36;1.30;;;1.30;;
16516;SDS011;8371;52.272;9.746;2023-05-10T15:07:02;1.03;;;1.03;;
16516;SDS011;8371;52.272;9.746;2023-05-10T15:09:28;1.07;;;1.07;;
16516;SDS011;8371;52.272;9.746;2023-05-10T15:11:54;1.00;;;1.00;;
16516;SDS011;8371;52.272;9.746;2023-05-10T15:14:20;1.00;;;1.00;;
16516;SDS011;8371;52.272;9.746;2023-05-10T15:16:45;0.90;;;0.90;;
16516;SDS011;8371;52.272;9.746;2023-05-10T15:19:12;1.13;;;1.13;;
16516;SDS011;8371;52.272;9.746;2023-05-10T15:21:37;1.17;;;1.17;;
16516;SDS011;8371;52.272;9.746;2023-05-10T15:24:04;1.30;;;1.30;;
16516;SDS011;8371;52.272;9.746;2023-05-10T15:26:32;1.70;;;1.60;;
16516;SDS011;8371;52.272;9.746;2023-05-10T15:28:58;2.97;;;2.77;;
16516;SDS011;8371;52.272;9.746;2023-05-10T15:31:23;3.20;;;3.00;;
16516;SDS011;8371;52.272;9.746;2023-05-10T15:33:49;3.70;;;3.30;;
16516;SDS011;8371;52.272;9.746;2023-05-10T15:36:15;4.53;;;4.33;;
16516;SDS011;8371;52.272;9.746;2023-05-10T15:38:42;4.33;;;3.93;;
16516;SDS011;8371;52.272;9.746;2023-05-10T15:41:08;4.10;;;3.90;;
16516;SDS011;8371;52.272;9.746;2023-05-10T15:43:33;3.50;;;3.23;;